Time;durP1;ratioP1;P1;durP2;ratioP2;P2;SDS_P1;SDS_P2;PMS_P1;PMS_P2;Temp;Humidity;BMP_temperature;BMP_pressure;BME280_temperature;BME280_humidity;BME280_pressure;Samples;Min_cycle;Max_cycle;Signal;HPM_P1;HPM_P2
2021/04/02 00:02:09;;;;;;;1.10;0.40;;;6.00;99.90;;;;;;10528056;28;20042;-48
2021/04/02 00:07:30;;;;;;;0.88;0.20;;;5.90;99.90;;;;;;10525835;28;20417;-48
2021/04/02 00:12:51;;;;;;;0.63;0.30;;;5.90;99.90;;;;;;10523937;28;20406;-48
2021/04/02 00:18:12;;;;;;;1.80;0.70;;;5.80;99.90;;;;;;10520807;28;20450;-48
2021/04/02 00:23:35;;;;;;;1.13;0.30;;;5.80;99.90;;;;;;10532325;28;20382;-48
2021/04/02 00:28:56;;;;;;;2.38;0.40;;;5.70;99.90;;;;;;10528297;28;20044;-48
2021/04/02 00:34:17;;;;;;;1.90;0.52;;;5.70;99.90;;;;;;10519072;28;20179;-48
2021/04/02 00:39:38;;;;;;;2.75;0.50;;;5.60;99.90;;;;;;10525983;28;20031;-48
2021/04/02 00:44:59;;;;;;;2.38;0.30;;;5.50;99.90;;;;;;10528234;28;20423;-48
2021/04/02 00:50:26;;;;;;;1.05;0.40;;;5.50;99.90;;;;;;10512614;28;20048;-48
2021/04/02 00:55:47;;;;;;;0.80;0.38;;;5.40;99.90;;;;;;10478870;28;20602;-48
2021/04/02 01:01:10;;;;;;;4.20;1.13;;;5.40;99.90;;;;;;10480872;28;20628;-48
2021/04/02 01:06:31;;;;;;;2.42;0.38;;;5.20;99.90;;;;;;10475550;28;20116;-48
2021/04/02 01:11:52;;;;;;;5.20;0.40;;;5.20;99.90;;;;;;10477176;28;20071;-48
2021/04/02 01:17:13;;;;;;;5.40;0.55;;;5.10;99.90;;;;;;10482041;28;20277;-48
2021/04/02 01:22:34;;;;;;;6.68;0.45;;;5.10;99.90;;;;;;10476820;28;20544;-48
2021/04/02 01:28:07;;;;;;;1.25;0.30;;;5.00;99.90;;;;;;10479843;28;20117;-48
2021/04/02 01:33:29;;;;;;;1.35;0.30;;;5.00;99.90;;;;;;10482415;28;20048;-48
2021/04/02 01:38:52;;;;;;;2.90;0.20;;;4.90;99.90;;;;;;10482134;28;20059;-48
2021/04/02 01:44:14;;;;;;;0.70;0.38;;;4.80;99.90;;;;;;10482667;28;20063;-48
2021/04/02 01:49:37;;;;;;;0.90;0.40;;;4.80;99.90;;;;;;10464988;28;20056;-48
2021/04/02 01:54:59;;;;;;;0.95;0.40;;;4.80;99.90;;;;;;10487605;28;20127;-48
2021/04/02 02:00:25;;;;;;;1.08;0.55;;;4.80;99.90;;;;;;10481262;28;20059;-48
2021/04/02 02:05:48;;;;;;;16.17;5.28;;;4.70;99.90;;;;;;10483908;28;20111;-48
2021/04/02 02:11:13;;;;;;;10.23;3.25;;;4.70;99.90;;;;;;10484182;28;20044;-48
2021/04/02 02:16:38;;;;;;;1.58;0.70;;;4.70;99.90;;;;;;10491330;28;20476;-48
2021/04/02 02:22:05;;;;;;;1.73;0.40;;;4.70;99.90;;;;;;10486088;28;20032;-48
2021/04/02 02:27:26;;;;;;;1.38;0.40;;;4.70;99.90;;;;;;10481216;28;20747;-48
2021/04/02 02:32:48;;;;;;;2.15;0.43;;;4.80;99.90;;;;;;10481839;28;20546;-48
2021/04/02 02:38:09;;;;;;;0.93;0.35;;;4.90;99.90;;;;;;10483305;28;20069;-48
2021/04/02 02:43:31;;;;;;;0.82;0.20;;;5.00;99.90;;;;;;10488671;28;20086;-48
2021/04/02 02:48:57;;;;;;;0.90;0.40;;;5.20;99.90;;;;;;10482394;28;20051;-48
2021/04/02 02:54:20;;;;;;;7.88;1.00;;;5.30;99.90;;;;;;10482968;28;20044;-48
2021/04/02 02:59:42;;;;;;;0.73;0.03;;;5.40;99.90;;;;;;10484157;28;20098;-48
2021/04/02 03:05:04;;;;;;;0.47;0.20;;;5.50;99.90;;;;;;10480599;28;20051;-48
2021/04/02 03:10:27;;;;;;;0.55;0.20;;;5.50;99.90;;;;;;10479256;28;20044;-48
2021/04/02 03:15:50;;;;;;;1.48;0.30;;;5.60;99.90;;;;;;10483002;28;20044;-48
2021/04/02 03:21:11;;;;;;;1.45;0.40;;;5.50;99.90;;;;;;10476689;28;20040;-48
2021/04/02 03:26:33;;;;;;;1.00;0.20;;;5.50;99.90;;;;;;10464794;28;20499;-48
2021/04/02 03:31:59;;;;;;;4.50;0.45;;;5.50;99.90;;;;;;10480610;28;20170;-48
2021/04/02 03:37:22;;;;;;;5.35;0.30;;;5.60;99.90;;;;;;10476655;28;20032;-48
2021/04/02 03:42:46;;;;;;;1.30;0.20;;;5.60;99.90;;;;;;10482668;28;20064;-48
2021/04/02 03:48:10;;;;;;;2.13;0.43;;;5.70;99.90;;;;;;10478588;28;20544;-48
2021/04/02 03:53:54;;;;;;;0.88;0.20;;;5.70;99.90;;;;;;10486260;28;20044;-48
2021/04/02 03:59:16;;;;;;;3.08;0.22;;;5.70;99.90;;;;;;10482403;28;20036;-48
2021/04/02 04:04:38;;;;;;;1.17;0.52;;;5.70;99.90;;;;;;10480696;28;20044;-49
2021/04/02 04:09:59;;;;;;;1.60;0.20;;;5.80;99.90;;;;;;10478797;28;20408;-48
2021/04/02 04:15:22;;;;;;;0.70;0.20;;;5.70;99.90;;;;;;10476284;28;20035;-48
2021/04/02 04:20:44;;;;;;;1.02;0.40;;;5.80;99.90;;;;;;10475460;28;20433;-48
2021/04/02 04:26:06;;;;;;;0.95;0.30;;;5.80;99.90;;;;;;10480147;28;20056;-48
2021/04/02 04:31:28;;;;;;;1.65;0.20;;;5.80;99.90;;;;;;10475557;28;20036;-48
2021/04/02 04:36:50;;;;;;;0.88;0.30;;;5.80;99.90;;;;;;10470168;28;20044;-48
2021/04/02 04:42:13;;;;;;;1.10;0.45;;;5.80;99.90;;;;;;10479283;28;20036;-48
2021/04/02 04:47:36;;;;;;;0.22;0.13;;;5.70;99.90;;;;;;10473742;28;20048;-48
2021/04/02 04:53:17;;;;;;;0.73;0.30;;;5.70;99.90;;;;;;10508869;28;20048;-48
2021/04/02 04:58:40;;;;;;;0.30;0.17;;;5.80;99.90;;;;;;10518266;28;21644;-48
2021/04/02 05:04:04;;;;;;;0.25;0.10;;;5.70;99.90;;;;;;10519943;28;20036;-48
2021/04/02 05:09:26;;;;;;;1.27;0.35;;;5.80;99.90;;;;;;10532831;28;20066;-48
2021/04/02 05:14:48;;;;;;;0.75;0.30;;;5.70;99.90;;;;;;10529565;28;20039;-48
2021/04/02 05:20:10;;;;;;;0.43;0.20;;;5.70;99.90;;;;;;10529780;28;20032;-48
2021/04/02 05:25:31;;;;;;;3.60;0.40;;;5.60;99.90;;;;;;10532844;28;20032;-48
2021/04/02 05:30:52;;;;;;;0.73;0.20;;;5.60;99.90;;;;;;10533798;28;20032;-48
2021/04/02 05:36:13;;;;;;;1.35;0.40;;;5.60;99.90;;;;;;10526473;28;20050;-48
2021/04/02 05:41:50;;;;;;;0.43;0.38;;;5.60;99.90;;;;;;10532614;28;20243;-48
2021/04/02 05:47:14;;;;;;;0.98;0.30;;;5.60;99.90;;;;;;10526801;28;20051;-48
2021/04/02 05:52:36;;;;;;;11.85;0.55;;;5.70;99.90;;;;;;10529529;28;20046;-48
2021/04/02 05:57:58;;;;;;;0.98;0.20;;;5.80;99.90;;;;;;10527632;28;20093;-48
2021/04/02 06:03:21;;;;;;;0.90;0.40;;;6.00;99.90;;;;;;10522980;28;20454;-49
2021/04/02 06:08:46;;;;;;;4.03;1.23;;;6.10;99.90;;;;;;10528152;28;20096;-48
2021/04/02 06:14:09;;;;;;;0.98;0.40;;;6.20;99.90;;;;;;10525354;28;20395;-49
2021/04/02 06:19:30;;;;;;;1.58;0.50;;;6.30;99.90;;;;;;10522159;28;20116;-48
2021/04/02 06:24:50;;;;;;;3.10;1.08;;;6.30;99.90;;;;;;10530397;28;20032;-48
2021/04/02 06:30:12;;;;;;;1.48;0.30;;;6.40;99.90;;;;;;10526899;28;20050;-49
2021/04/02 06:35:36;;;;;;;2.70;0.93;;;6.40;99.90;;;;;;10529295;28;20475;-48
2021/04/02 06:41:06;;;;;;;0.52;0.22;;;6.40;99.90;;;;;;10524480;28;20050;-48
2021/04/02 06:46:29;;;;;;;1.05;0.73;;;6.50;99.90;;;;;;10525245;28;20468;-48
2021/04/02 06:51:52;;;;;;;2.65;0.47;;;6.50;99.90;;;;;;10527059;28;20079;-48
2021/04/02 06:57:14;;;;;;;0.77;0.43;;;6.60;99.90;;;;;;10531303;28;20131;-48
2021/04/02 07:02:39;;;;;;;3.45;0.68;;;6.60;99.90;;;;;;10529210;28;20111;-48
2021/04/02 07:08:08;;;;;;;1.73;0.38;;;6.70;99.90;;;;;;10529692;28;20523;-48
2021/04/02 07:13:33;;;;;;;2.75;0.47;;;6.70;99.90;;;;;;10523783;28;20032;-48
2021/04/02 07:18:56;;;;;;;0.20;0.10;;;6.80;99.90;;;;;;10535290;28;20090;-48
2021/04/02 07:24:21;;;;;;;2.10;1.23;;;6.90;99.90;;;;;;10523632;28;20081;-48
2021/04/02 07:29:42;;;;;;;0.30;0.10;;;7.00;99.90;;;;;;10529337;28;20059;-48
2021/04/02 07:35:04;;;;;;;3.72;0.65;;;7.00;99.90;;;;;;10529201;28;20043;-48
2021/04/02 07:40:36;;;;;;;0.93;0.57;;;7.10;99.90;;;;;;10532313;28;20063;-48
2021/04/02 07:46:11;;;;;;;3.20;0.52;;;7.10;99.90;;;;;;10521874;28;20060;-48
2021/04/02 07:51:49;;;;;;;2.25;0.30;;;7.10;99.90;;;;;;10522135;28;20089;-49
2021/04/02 07:57:16;;;;;;;0.93;0.20;;;7.10;99.90;;;;;;10521118;28;20032;-48
2021/04/02 08:02:37;;;;;;;3.97;0.13;;;7.10;99.90;;;;;;10520216;28;20036;-48
2021/04/02 08:07:58;;;;;;;0.43;0.20;;;7.20;99.90;;;;;;10525060;28;20032;-48
2021/04/02 08:13:19;;;;;;;0.52;0.30;;;7.20;99.90;;;;;;10525731;28;20042;-48
2021/04/02 08:19:15;;;;;;;1.38;0.40;;;7.40;99.90;;;;;;10529832;28;20695;-48
2021/04/02 08:24:39;;;;;;;2.20;0.50;;;7.50;99.90;;;;;;10528263;28;20310;-48
2021/04/02 08:30:04;;;;;;;0.60;0.20;;;7.50;99.90;;;;;;10524944;28;20404;-48
2021/04/02 08:35:25;;;;;;;1.83;0.40;;;7.40;99.90;;;;;;10522964;28;20429;-48
2021/04/02 08:40:48;;;;;;;1.95;0.30;;;7.40;99.90;;;;;;10524493;28;20058;-48
2021/04/02 08:46:09;;;;;;;2.03;0.40;;;7.30;99.90;;;;;;10525275;28;20039;-48
2021/04/02 08:51:30;;;;;;;2.60;1.15;;;7.40;99.90;;;;;;10521029;28;20059;-48
2021/04/02 08:56:51;;;;;;;0.65;0.20;;;7.30;99.90;;;;;;10526899;28;20051;-48
2021/04/02 09:02:14;;;;;;;1.63;0.30;;;7.40;99.90;;;;;;10519657;28;20032;-49
2021/04/02 09:07:38;;;;;;;0.60;0.20;;;7.50;99.90;;;;;;10518440;28;20048;-48
2021/04/02 09:12:59;;;;;;;3.65;0.90;;;7.60;99.90;;;;;;10501960;28;20045;-49
2021/04/02 09:18:28;;;;;;;1.52;0.50;;;7.70;99.90;;;;;;10500914;28;20039;-48
2021/04/02 09:23:50;;;;;;;6.60;0.60;;;7.70;99.90;;;;;;10508614;28;20055;-49
2021/04/02 09:29:14;;;;;;;2.75;0.40;;;7.60;99.90;;;;;;10523281;28;20032;-49
2021/04/02 09:34:35;;;;;;;3.03;0.40;;;7.60;99.90;;;;;;10521783;28;20031;-48
2021/04/02 09:40:03;;;;;;;2.78;0.30;;;7.70;99.90;;;;;;10519221;28;20580;-48
2021/04/02 09:45:27;;;;;;;2.95;0.57;;;7.80;99.90;;;;;;10505035;28;20047;-48
2021/04/02 09:50:49;;;;;;;3.95;0.40;;;7.80;99.90;;;;;;10523398;28;20048;-48
2021/04/02 09:56:10;;;;;;;1.75;0.40;;;7.80;99.90;;;;;;10519573;28;20036;-48
2021/04/02 10:01:32;;;;;;;2.75;0.28;;;8.10;99.90;;;;;;10534694;28;20036;-48
2021/04/02 10:06:53;;;;;;;1.85;0.52;;;8.10;99.90;;;;;;10530940;28;20039;-49
2021/04/02 10:12:15;;;;;;;3.90;0.40;;;8.00;99.90;;;;;;10529767;28;20403;-48
2021/04/02 10:17:37;;;;;;;0.28;0.20;;;7.90;99.90;;;;;;10520937;28;20052;-48
2021/04/02 10:22:58;;;;;;;2.97;0.50;;;8.00;99.90;;;;;;10530903;28;20059;-48
2021/04/02 10:28:20;;;;;;;4.57;0.30;;;8.00;99.90;;;;;;10532730;28;20059;-48
2021/04/02 10:33:41;;;;;;;4.25;0.22;;;8.10;99.90;;;;;;10509968;28;20047;-48
2021/04/02 10:39:03;;;;;;;2.58;0.47;;;8.10;99.90;;;;;;10525353;28;20169;-49
2021/04/02 10:44:24;;;;;;;1.92;0.43;;;8.20;99.90;;;;;;10530803;28;20868;-48
2021/04/02 10:49:45;;;;;;;3.63;0.95;;;8.20;99.90;;;;;;10530642;28;20503;-48
2021/04/02 10:55:07;;;;;;;4.70;0.50;;;8.30;99.90;;;;;;10456353;28;20407;-49
2021/04/02 11:00:28;;;;;;;3.45;0.50;;;8.30;99.90;;;;;;10466370;28;20040;-48
2021/04/02 11:05:49;;;;;;;7.13;0.43;;;8.40;99.90;;;;;;10485558;28;20039;-49
2021/04/02 11:11:10;;;;;;;2.42;0.65;;;8.30;99.90;;;;;;10491351;28;20032;-48
2021/04/02 11:16:31;;;;;;;2.38;0.30;;;8.30;99.90;;;;;;10465107;28;20036;-49
2021/04/02 11:21:52;;;;;;;11.63;1.98;;;8.40;99.90;;;;;;10480841;28;20093;-49
2021/04/02 11:27:13;;;;;;;3.45;0.22;;;8.50;99.90;;;;;;10483248;28;20032;-49
2021/04/02 11:32:34;;;;;;;1.20;0.80;;;8.40;99.90;;;;;;10484496;28;20060;-49
2021/04/02 11:37:55;;;;;;;2.45;0.30;;;8.40;99.90;;;;;;10480920;28;20474;-49
2021/04/02 11:43:16;;;;;;;2.20;0.38;;;8.60;99.90;;;;;;10481845;28;20048;-49
2021/04/02 11:48:37;;;;;;;3.25;0.52;;;8.70;99.90;;;;;;10485017;28;20025;-48
2021/04/02 11:53:58;;;;;;;1.75;1.30;;;8.70;99.90;;;;;;10521460;28;20541;-49
2021/04/02 11:59:19;;;;;;;4.32;0.63;;;8.60;99.90;;;;;;10512743;28;20063;-49
2021/04/02 12:04:40;;;;;;;6.80;0.60;;;8.50;99.90;;;;;;10530142;28;20443;-49
2021/04/02 12:10:02;;;;;;;7.70;0.60;;;8.40;99.90;;;;;;10523761;28;20036;-49
2021/04/02 12:15:23;;;;;;;5.20;1.10;;;8.50;99.90;;;;;;10525587;28;20111;-49
2021/04/02 12:20:44;;;;;;;1.60;0.57;;;8.40;99.90;;;;;;10518155;28;20358;-49
2021/04/02 12:26:06;;;;;;;3.63;0.50;;;8.40;99.90;;;;;;10527714;27;20032;-49
2021/04/02 12:31:27;;;;;;;2.10;0.30;;;8.40;99.90;;;;;;10523589;28;20044;-49
2021/04/02 12:36:48;;;;;;;5.10;0.68;;;8.40;99.90;;;;;;10526644;28;20040;-49
2021/04/02 12:42:09;;;;;;;2.08;0.75;;;8.40;99.90;;;;;;10527890;28;20048;-49
2021/04/02 12:47:30;;;;;;;2.17;0.60;;;8.40;99.90;;;;;;10523134;28;20036;-49
2021/04/02 12:52:52;;;;;;;1.45;0.55;;;8.40;99.90;;;;;;10510251;28;20044;-49
2021/04/02 12:58:13;;;;;;;3.92;1.05;;;8.20;99.90;;;;;;10524507;28;20032;-49
2021/04/02 13:03:34;;;;;;;1.13;0.40;;;8.10;99.90;;;;;;10525628;28;20036;-49
2021/04/02 13:08:55;;;;;;;11.25;1.00;;;8.10;99.90;;;;;;10523406;28;20481;-49
2021/04/02 13:14:16;;;;;;;2.03;0.35;;;8.20;99.90;;;;;;10507923;28;20207;-49
2021/04/02 13:19:37;;;;;;;4.13;0.38;;;8.30;99.90;;;;;;10524406;28;20028;-49
2021/04/02 13:24:58;;;;;;;0.73;0.40;;;8.20;99.90;;;;;;10525527;28;20031;-49
2021/04/02 13:30:20;;;;;;;4.95;1.05;;;8.20;99.90;;;;;;10534691;28;20500;-49
2021/04/02 13:35:41;;;;;;;1.95;0.57;;;8.20;99.90;;;;;;10530715;28;20047;-49
2021/04/02 13:41:02;;;;;;;1.13;0.52;;;8.20;99.90;;;;;;10526515;28;20380;-49
2021/04/02 13:46:23;;;;;;;0.95;0.30;;;8.30;99.90;;;;;;10530160;28;20445;-49
2021/04/02 13:51:44;;;;;;;0.85;0.30;;;8.40;99.90;;;;;;10529757;27;20040;-49
2021/04/02 13:57:06;;;;;;;1.20;0.40;;;8.40;99.90;;;;;;10532384;28;20035;-49
2021/04/02 14:02:27;;;;;;;2.90;0.50;;;8.30;99.90;;;;;;10533173;28;20120;-49
2021/04/02 14:07:49;;;;;;;0.68;0.38;;;8.30;99.90;;;;;;10531026;28;20468;-49
2021/04/02 14:13:10;;;;;;;2.10;0.22;;;8.30;99.90;;;;;;10528332;28;20039;-49
2021/04/02 14:18:31;;;;;;;3.65;0.22;;;8.40;99.90;;;;;;10530250;28;20036;-49
2021/04/02 14:23:52;;;;;;;7.03;0.73;;;8.50;99.90;;;;;;10539254;27;20074;-49
2021/04/02 14:29:14;;;;;;;2.42;0.50;;;8.50;99.90;;;;;;10528381;28;20036;-49
2021/04/02 14:34:34;;;;;;;3.17;0.40;;;8.40;99.90;;;;;;10519374;28;20111;-49
2021/04/02 14:39:55;;;;;;;1.83;0.57;;;8.40;99.90;;;;;;10528102;28;20032;-49
2021/04/02 14:45:17;;;;;;;1.75;0.85;;;8.50;99.90;;;;;;10524644;28;20523;-49
2021/04/02 14:50:40;;;;;;;1.20;0.50;;;8.60;99.90;;;;;;10532331;28;20040;-49
2021/04/02 14:56:02;;;;;;;7.57;0.90;;;8.60;99.90;;;;;;10522430;28;20081;-49
2021/04/02 15:01:24;;;;;;;1.52;0.43;;;8.60;99.90;;;;;;10524474;28;20032;-49
2021/04/02 15:06:45;;;;;;;1.08;0.43;;;8.50;99.90;;;;;;10525132;28;20036;-49
2021/04/02 15:12:07;;;;;;;2.60;0.30;;;8.50;99.90;;;;;;10526227;28;20040;-49
2021/04/02 15:17:28;;;;;;;3.35;0.52;;;8.50;99.90;;;;;;10525925;28;20044;-49
2021/04/02 15:22:51;;;;;;;2.00;0.60;;;8.50;99.90;;;;;;10521096;28;20040;-49
2021/04/02 15:28:12;;;;;;;0.80;0.32;;;8.50;99.90;;;;;;10522303;28;20036;-49
2021/04/02 15:33:33;;;;;;;7.78;0.40;;;8.60;99.90;;;;;;10522289;28;20046;-49
2021/04/02 15:38:54;;;;;;;2.00;1.27;;;8.50;99.90;;;;;;10526997;28;20035;-49
2021/04/02 15:44:15;;;;;;;0.77;0.20;;;8.50;99.90;;;;;;10516055;28;20093;-49
2021/04/02 15:49:36;;;;;;;0.47;0.17;;;8.60;99.90;;;;;;10505723;28;20043;-49
2021/04/02 15:54:57;;;;;;;6.47;0.38;;;8.50;99.90;;;;;;10522617;28;20127;-49
2021/04/02 16:00:21;;;;;;;0.55;0.38;;;8.50;99.90;;;;;;10525320;28;20383;-49
2021/04/02 16:05:44;;;;;;;1.20;0.47;;;8.50;99.90;;;;;;10507314;28;20063;-49
2021/04/02 16:11:05;;;;;;;4.95;0.52;;;8.60;99.90;;;;;;10513245;28;20073;-49
2021/04/02 16:16:26;;;;;;;2.42;1.05;;;8.50;99.90;;;;;;10511277;27;20391;-49
2021/04/02 16:21:47;;;;;;;0.98;0.38;;;8.40;99.90;;;;;;10509018;28;20032;-49
2021/04/02 16:27:08;;;;;;;0.30;0.20;;;8.40;99.90;;;;;;10507579;28;20036;-49
2021/04/02 16:32:29;;;;;;;3.53;0.30;;;8.30;99.90;;;;;;10514991;28;20418;-49
2021/04/02 16:37:50;;;;;;;1.70;1.10;;;8.30;99.90;;;;;;10510889;28;20042;-49
2021/04/02 16:43:11;;;;;;;1.73;0.77;;;8.30;99.90;;;;;;10502485;28;20040;-49
2021/04/02 16:48:32;;;;;;;1.20;0.30;;;8.20;99.90;;;;;;10504473;28;20328;-49
2021/04/02 16:53:53;;;;;;;0.82;0.30;;;8.20;99.90;;;;;;10468304;28;21326;-48
2021/04/02 16:59:14;;;;;;;3.15;0.43;;;8.10;99.90;;;;;;10462883;28;20039;-49
2021/04/02 17:04:35;;;;;;;1.88;0.35;;;8.00;99.90;;;;;;10468859;28;20241;-49
2021/04/02 17:09:57;;;;;;;0.55;0.25;;;8.10;99.90;;;;;;10463498;28;20036;-49
2021/04/02 17:15:20;;;;;;;1.63;0.47;;;7.90;99.90;;;;;;10461354;28;20582;-49
2021/04/02 17:20:41;;;;;;;2.03;0.55;;;7.90;99.90;;;;;;10451007;28;20551;-49
2021/04/02 17:26:06;;;;;;;4.40;1.13;;;8.00;99.90;;;;;;10464349;28;20617;-49
2021/04/02 17:31:28;;;;;;;2.42;1.17;;;8.10;99.90;;;;;;10467463;28;20337;-49
2021/04/02 17:36:49;;;;;;;0.77;0.20;;;8.00;99.90;;;;;;10463222;28;20444;-49
2021/04/02 17:42:10;;;;;;;1.30;0.40;;;8.00;99.90;;;;;;10468684;28;20044;-49
2021/04/02 17:47:31;;;;;;;2.53;0.40;;;7.80;99.90;;;;;;10466550;28;20398;-49
2021/04/02 17:52:52;;;;;;;2.13;0.73;;;7.60;99.90;;;;;;10459399;28;20047;-49
2021/04/02 17:58:13;;;;;;;3.20;0.80;;;7.60;99.90;;;;;;10449920;28;20400;-49
2021/04/02 18:03:34;;;;;;;3.30;0.50;;;7.50;99.90;;;;;;10467213;28;20123;-50
2021/04/02 18:08:55;;;;;;;1.25;0.65;;;7.50;99.90;;;;;;10463477;28;20602;-49
2021/04/02 18:14:17;;;;;;;4.10;0.50;;;7.50;99.90;;;;;;10459534;28;20055;-49
2021/04/02 18:19:39;;;;;;;1.30;0.47;;;7.30;99.90;;;;;;10467867;28;20135;-49
2021/04/02 18:25:01;;;;;;;2.90;0.68;;;7.40;99.90;;;;;;10466044;28;20037;-49
2021/04/02 18:30:22;;;;;;;1.15;0.47;;;7.40;99.90;;;;;;10470555;28;20538;-49
2021/04/02 18:35:44;;;;;;;2.38;0.50;;;7.40;99.90;;;;;;10467889;28;20041;-49
2021/04/02 18:41:05;;;;;;;7.90;1.30;;;7.40;99.90;;;;;;10464415;28;20063;-49
2021/04/02 18:46:26;;;;;;;1.33;0.40;;;7.40;99.90;;;;;;10463978;28;20069;-49
2021/04/02 18:51:51;;;;;;;5.60;0.82;;;7.40;99.90;;;;;;10485885;28;20086;-49
2021/04/02 18:57:12;;;;;;;4.60;0.88;;;7.40;99.90;;;;;;10514307;27;20043;-49
2021/04/02 19:02:36;;;;;;;2.80;1.58;;;7.40;99.90;;;;;;10515359;28;20062;-49
2021/04/02 19:07:57;;;;;;;5.40;0.80;;;7.40;99.90;;;;;;10512554;28;20035;-49
2021/04/02 19:13:18;;;;;;;4.82;0.80;;;7.40;99.90;;;;;;10514284;28;20062;-49
2021/04/02 19:18:39;;;;;;;6.82;1.35;;;7.50;99.90;;;;;;10503237;27;20058;-49
2021/04/02 19:24:00;;;;;;;2.55;1.27;;;7.50;99.90;;;;;;10504614;27;21387;-49
2021/04/02 19:29:21;;;;;;;4.65;1.42;;;7.50;99.90;;;;;;10509581;28;20137;-49
2021/04/02 19:34:43;;;;;;;2.63;0.88;;;7.50;99.90;;;;;;10508114;27;20358;-49
2021/04/02 19:40:05;;;;;;;1.42;0.77;;;7.50;99.90;;;;;;10506871;28;20040;-49
2021/04/02 19:45:26;;;;;;;8.85;1.33;;;7.50;99.90;;;;;;10513597;28;20189;-49
2021/04/02 19:50:48;;;;;;;3.90;0.93;;;7.60;99.90;;;;;;10509156;28;20043;-49
2021/04/02 19:56:09;;;;;;;4.68;1.08;;;7.50;99.90;;;;;;10508920;28;20218;-49
2021/04/02 20:01:30;;;;;;;7.65;1.20;;;7.40;99.90;;;;;;10512955;27;20510;-49
2021/04/02 20:06:51;;;;;;;5.28;0.98;;;7.20;99.90;;;;;;10511116;28;20043;-49
2021/04/02 20:12:13;;;;;;;6.97;1.50;;;7.10;99.90;;;;;;10506193;28;20064;-49
2021/04/02 20:17:34;;;;;;;2.78;1.33;;;6.90;99.90;;;;;;10510595;28;20057;-49
2021/04/02 20:22:57;;;;;;;6.57;1.25;;;6.80;99.90;;;;;;10507241;28;20126;-49
2021/04/02 20:28:18;;;;;;;1.77;0.70;;;6.80;99.90;;;;;;10511578;28;20068;-49
2021/04/02 20:33:39;;;;;;;1.60;0.63;;;6.70;99.90;;;;;;10503507;28;20043;-49
2021/04/02 20:39:00;;;;;;;5.03;1.45;;;6.70;99.90;;;;;;10509310;28;21326;-49
2021/04/02 20:44:21;;;;;;;6.85;0.98;;;6.60;99.90;;;;;;10506753;28;20280;-49
2021/04/02 20:49:42;;;;;;;2.92;0.55;;;6.50;99.90;;;;;;10509449;28;20032;-49
2021/04/02 20:55:05;;;;;;;11.05;2.45;;;6.50;99.90;;;;;;10469768;28;20432;-49
2021/04/02 21:00:28;;;;;;;2.60;0.75;;;6.50;99.90;;;;;;10466833;28;20039;-49
2021/04/02 21:05:49;;;;;;;8.73;1.15;;;6.40;99.90;;;;;;10461340;28;20020;-49
2021/04/02 21:11:10;;;;;;;5.25;1.77;;;6.40;99.90;;;;;;10466511;28;20044;-49
2021/04/02 21:16:33;;;;;;;4.53;1.05;;;6.40;99.90;;;;;;10464954;28;20072;-49
2021/04/02 21:21:54;;;;;;;6.20;0.90;;;6.40;99.90;;;;;;10459267;28;20349;-49
2021/04/02 21:27:17;;;;;;;1.65;0.75;;;6.50;99.90;;;;;;10463368;28;20046;-49
2021/04/02 21:32:41;;;;;;;1.60;0.77;;;6.50;99.90;;;;;;10461777;28;20123;-49
2021/04/02 21:38:02;;;;;;;1.67;0.55;;;6.60;99.90;;;;;;10458782;28;20139;-49
2021/04/02 21:43:23;;;;;;;2.15;1.15;;;6.70;99.90;;;;;;10463063;28;20035;-49
2021/04/02 21:48:44;;;;;;;5.20;1.02;;;6.70;99.90;;;;;;10454193;28;20033;-49
2021/04/02 21:54:05;;;;;;;3.45;1.00;;;6.80;99.90;;;;;;10499555;28;20054;-49
2021/04/02 21:59:27;;;;;;;1.73;0.75;;;6.80;99.90;;;;;;10518149;28;20178;-49
2021/04/02 22:04:48;;;;;;;14.68;1.55;;;6.90;99.90;;;;;;10511897;28;20035;-49
2021/04/02 22:10:14;;;;;;;3.00;0.90;;;6.90;99.90;;;;;;10511721;27;20061;-49
2021/04/02 22:15:35;;;;;;;3.67;1.10;;;7.00;99.90;;;;;;10526929;28;20521;-49
2021/04/02 22:20:56;;;;;;;5.70;0.80;;;6.80;99.90;;;;;;10532026;28;20036;-49
2021/04/02 22:26:18;;;;;;;4.80;0.70;;;6.80;99.90;;;;;;10535620;28;20088;-49
2021/04/02 22:31:39;;;;;;;2.70;0.68;;;6.70;99.90;;;;;;10533888;28;20304;-49
2021/04/02 22:37:00;;;;;;;1.67;0.50;;;6.80;99.90;;;;;;10525657;28;20031;-50
2021/04/02 22:42:21;;;;;;;4.38;1.00;;;6.80;99.90;;;;;;10525085;28;20031;-49
2021/04/02 22:47:42;;;;;;;2.83;0.60;;;6.80;99.90;;;;;;10529100;28;20050;-49
2021/04/02 22:53:05;;;;;;;4.93;0.22;;;6.80;99.90;;;;;;10526166;28;20087;-49
2021/04/02 22:58:29;;;;;;;11.07;1.05;;;6.90;99.90;;;;;;10516821;28;20480;-49
2021/04/02 23:03:50;;;;;;;0.98;0.32;;;6.80;99.90;;;;;;10523194;27;20051;-49
2021/04/02 23:09:12;;;;;;;1.98;0.60;;;6.70;99.90;;;;;;10522962;28;20071;-49
2021/04/02 23:14:33;;;;;;;4.57;0.40;;;6.60;99.90;;;;;;10526553;28;20122;-49
2021/04/02 23:19:54;;;;;;;7.43;0.75;;;6.50;99.90;;;;;;10522433;28;20502;-49
2021/04/02 23:25:18;;;;;;;0.93;0.20;;;6.30;99.90;;;;;;10523930;28;20509;-49
2021/04/02 23:30:39;;;;;;;1.20;0.57;;;6.40;99.90;;;;;;10526043;28;20453;-49
2021/04/02 23:36:00;;;;;;;1.25;0.20;;;6.40;99.90;;;;;;10521925;28;20427;-49
2021/04/02 23:41:21;;;;;;;0.45;0.20;;;6.30;99.90;;;;;;10519629;28;20327;-49
2021/04/02 23:46:42;;;;;;;0.77;0.25;;;6.30;99.90;;;;;;10524350;28;20471;-49
2021/04/02 23:52:04;;;;;;;1.15;0.50;;;6.30;99.90;;;;;;10515423;28;20051;-49
2021/04/02 23:57:25;;;;;;;0.95;0.32;;;6.20;99.90;;;;;;10526155;28;20542;-49
